sensor_id;sensor_type;location;lat;lon;timestamp;pressure;altitude;pressure_sealevel;temperature;humidity
32330;BME280;18807;52.434;13.238;2023-04-29T00:02:16;75804.31;;;-142.05;91.26
32330;BME280;18807;52.434;13.238;2023-04-29T00:09:50;75800.22;;;-142.05;91.09
32330;BME280;18807;52.434;13.238;2023-04-29T00:17:26;75800.22;;;-142.05;92.02
32330;BME280;18807;52.434;13.238;2023-04-29T00:25:00;75802.28;;;-142.05;91.69
32330;BME280;18807;52.434;13.238;2023-04-29T00:32:37;75804.31;;;-142.05;91.71
32330;BME280;18807;52.434;13.238;2023-04-29T00:40:11;75810.44;;;-142.05;94.41
32330;BME280;18807;52.434;13.238;2023-04-29T00:47:48;75818.59;;;-142.05;94.16
32330;BME280;18807;52.434;13.238;2023-04-29T00:55:24;75808.41;;;-142.05;95.14
32330;BME280;18807;52.434;13.238;2023-04-29T01:03:00;75808.41;;;-142.05;100.00
32330;BME280;18807;52.434;13.238;2023-04-29T01:10:42;75841.06;;;-142.05;100.00
32330;BME280;18807;52.434;13.238;2023-04-29T01:18:22;75861.47;;;-142.05;100.00
32330;BME280;18807;52.434;13.238;2023-04-29T01:26:00;75841.06;;;-142.05;100.00
32330;BME280;18807;52.434;13.238;2023-04-29T01:33:40;75845.13;;;-142.05;100.00
32330;BME280;18807;52.434;13.238;2023-04-29T01:41:22;75847.16;;;-142.05;100.00
32330;BME280;18807;52.434;13.238;2023-04-29T01:49:00;75847.16;;;-142.05;100.00
32330;BME280;18807;52.434;13.238;2023-04-29T01:56:36;75855.34;;;-142.05;100.00
32330;BME280;18807;52.434;13.238;2023-04-29T02:04:10;75847.16;;;-142.05;100.00
32330;BME280;18807;52.434;13.238;2023-04-29T02:11:46;75855.34;;;-142.05;100.00
32330;BME280;18807;52.434;13.238;2023-04-29T02:19:20;75857.38;;;-142.05;100.00
32330;BME280;18807;52.434;13.238;2023-04-29T02:26:55;75857.38;;;-142.05;100.00
32330;BME280;18807;52.434;13.238;2023-04-29T02:34:30;75863.50;;;-142.05;100.00
32330;BME280;18807;52.434;13.238;2023-04-29T02:42:06;75869.63;;;-142.05;100.00
32330;BME280;18807;52.434;13.238;2023-04-29T02:49:40;75865.53;;;-142.05;100.00
32330;BME280;18807;52.434;13.238;2023-04-29T02:57:15;75865.53;;;-142.05;100.00
32330;BME280;18807;52.434;13.238;2023-04-29T03:04:50;75849.22;;;-142.05;100.00
32330;BME280;18807;52.434;13.238;2023-04-29T03:12:25;75853.28;;;-142.05;100.00
32330;BME280;18807;52.434;13.238;2023-04-29T03:19:59;75843.09;;;-142.05;100.00
32330;BME280;18807;52.434;13.238;2023-04-29T03:27:35;75841.06;;;-142.05;100.00
32330;BME280;18807;52.434;13.238;2023-04-29T03:35:09;75836.97;;;-142.05;100.00
32330;BME280;18807;52.434;13.238;2023-04-29T03:42:48;75832.88;;;-142.05;100.00
32330;BME280;18807;52.434;13.238;2023-04-29T03:50:22;75826.75;;;-142.05;100.00
32330;BME280;18807;52.434;13.238;2023-04-29T03:57:59;75822.69;;;-142.05;100.00
32330;BME280;18807;52.434;13.238;2023-04-29T04:05:33;75822.69;;;-142.05;100.00
32330;BME280;18807;52.434;13.238;2023-04-29T04:13:08;75824.72;;;-142.05;100.00
32330;BME280;18807;52.434;13.238;2023-04-29T04:20:42;75820.63;;;-142.05;100.00
32330;BME280;18807;52.434;13.238;2023-04-29T04:28:17;75820.63;;;-142.05;100.00
32330;BME280;18807;52.434;13.238;2023-04-29T04:35:51;75814.53;;;-142.05;100.00
32330;BME280;18807;52.434;13.238;2023-04-29T04:43:27;75814.53;;;-142.05;100.00
32330;BME280;18807;52.434;13.238;2023-04-29T04:51:06;75812.47;;;-142.05;100.00
32330;BME280;18807;52.434;13.238;2023-04-29T04:58:42;75812.47;;;-142.05;100.00
32330;BME280;18807;52.434;13.238;2023-04-29T05:06:16;75814.53;;;-142.05;100.00
32330;BME280;18807;52.434;13.238;2023-04-29T05:13:53;75806.34;;;-142.05;100.00
32330;BME280;18807;52.434;13.238;2023-04-29T05:21:27;75808.41;;;-142.05;100.00
32330;BME280;18807;52.434;13.238;2023-04-29T05:29:02;75806.34;;;-142.05;100.00
32330;BME280;18807;52.434;13.238;2023-04-29T05:36:37;75806.34;;;-142.05;100.00
32330;BME280;18807;52.434;13.238;2023-04-29T05:44:12;75790.03;;;-142.05;100.00
32330;BME280;18807;52.434;13.238;2023-04-29T05:51:46;75777.78;;;-142.05;100.00
32330;BME280;18807;52.434;13.238;2023-04-29T05:59:21;75777.78;;;-142.05;100.00
32330;BME280;18807;52.434;13.238;2023-04-29T06:07:02;75781.88;;;-142.05;100.00
32330;BME280;18807;52.434;13.238;2023-04-29T06:14:39;75777.78;;;-142.05;100.00
32330;BME280;18807;52.434;13.238;2023-04-29T06:22:13;75775.75;;;-142.05;100.00
32330;BME280;18807;52.434;13.238;2023-04-29T06:29:49;75775.75;;;-142.05;100.00
32330;BME280;18807;52.434;13.238;2023-04-29T06:37:23;75783.91;;;-142.05;100.00
32330;BME280;18807;52.434;13.238;2023-04-29T06:44:58;75796.16;;;-142.05;100.00
32330;BME280;18807;52.434;13.238;2023-04-29T06:52:32;75808.41;;;-142.05;100.00
32330;BME280;18807;52.434;13.238;2023-04-29T07:00:09;75834.94;;;-142.05;100.00
32330;BME280;18807;52.434;13.238;2023-04-29T07:07:43;75853.28;;;-142.05;100.00
32330;BME280;18807;52.434;13.238;2023-04-29T07:15:18;75875.75;;;-142.05;100.00
32330;BME280;18807;52.434;13.238;2023-04-29T07:22:53;75906.34;;;-142.05;100.00
32330;BME280;18807;52.434;13.238;2023-04-29T07:30:28;75920.63;;;-142.05;100.00
32330;BME280;18807;52.434;13.238;2023-04-29T07:38:20;75941.06;;;-142.05;100.00
32330;BME280;18807;52.434;13.238;2023-04-29T07:45:56;75945.13;;;-142.05;100.00
32330;BME280;18807;52.434;13.238;2023-04-29T07:53:48;75953.28;;;-142.05;100.00
32330;BME280;18807;52.434;13.238;2023-04-29T08:01:23;75967.59;;;-142.05;100.00
32330;BME280;18807;52.434;13.238;2023-04-29T08:09:15;75990.03;;;-142.05;100.00
32330;BME280;18807;52.434;13.238;2023-04-29T08:16:50;76008.41;;;-142.05;100.00
32330;BME280;18807;52.434;13.238;2023-04-29T08:24:26;76020.66;;;-142.05;100.00
32330;BME280;18807;52.434;13.238;2023-04-29T08:32:02;76045.13;;;-142.05;100.00
32330;BME280;18807;52.434;13.238;2023-04-29T08:39:54;76045.13;;;-142.05;100.00
32330;BME280;18807;52.434;13.238;2023-04-29T08:47:30;76053.28;;;-142.05;100.00
32330;BME280;18807;52.434;13.238;2023-04-29T08:55:07;76071.66;;;-142.05;100.00
32330;BME280;18807;52.434;13.238;2023-04-29T09:02:46;76102.28;;;-142.05;100.00
32330;BME280;18807;52.434;13.238;2023-04-29T09:10:22;76104.31;;;-142.05;100.00
32330;BME280;18807;52.434;13.238;2023-04-29T09:17:57;76118.59;;;-142.05;100.00
32330;BME280;18807;52.434;13.238;2023-04-29T09:25:32;76141.06;;;-142.05;100.00
32330;BME280;18807;52.434;13.238;2023-04-29T09:33:09;76157.38;;;-142.05;100.00
32330;BME280;18807;52.434;13.238;2023-04-29T09:40:45;76185.97;;;-142.05;100.00
32330;BME280;18807;52.434;13.238;2023-04-29T09:48:32;76185.97;;;-142.05;100.00
32330;BME280;18807;52.434;13.238;2023-04-29T09:56:07;76188.00;;;-142.05;100.00
32330;BME280;18807;52.434;13.238;2023-04-29T10:04:00;76206.38;;;-142.05;100.00
32330;BME280;18807;52.434;13.238;2023-04-29T10:11:37;76208.41;;;-142.05;100.00
32330;BME280;18807;52.434;13.238;2023-04-29T10:19:18;76200.25;;;-142.05;100.00
32330;BME280;18807;52.434;13.238;2023-04-29T10:26:58;76194.13;;;-142.05;100.00
32330;BME280;18807;52.434;13.238;2023-04-29T10:34:36;76208.41;;;-142.05;100.00
32330;BME280;18807;52.434;13.238;2023-04-29T10:42:16;76208.41;;;-142.05;100.00
32330;BME280;18807;52.434;13.238;2023-04-29T10:50:04;76212.50;;;-142.05;100.00
32330;BME280;18807;52.434;13.238;2023-04-29T10:57:39;76210.44;;;-142.05;100.00
32330;BME280;18807;52.434;13.238;2023-04-29T11:05:15;76212.50;;;-142.05;100.00
32330;BME280;18807;52.434;13.238;2023-04-29T11:13:22;76222.69;;;-142.05;100.00
32330;BME280;18807;52.434;13.238;2023-04-29T11:21:16;76228.81;;;-142.05;100.00
32330;BME280;18807;52.434;13.238;2023-04-29T11:28:50;76208.41;;;-142.05;100.00
32330;BME280;18807;52.434;13.238;2023-04-29T11:36:26;76192.09;;;-142.05;100.00
32330;BME280;18807;52.434;13.238;2023-04-29T11:44:00;76183.91;;;-142.05;100.00
32330;BME280;18807;52.434;13.238;2023-04-29T11:51:37;76161.47;;;-142.05;100.00
32330;BME280;18807;52.434;13.238;2023-04-29T11:59:12;76159.44;;;-142.05;100.00
32330;BME280;18807;52.434;13.238;2023-04-29T12:06:50;76141.06;;;-142.05;100.00
32330;BME280;18807;52.434;13.238;2023-04-29T12:14:24;76151.25;;;-142.05;100.00
32330;BME280;18807;52.434;13.238;2023-04-29T12:22:18;76151.25;;;-142.05;100.00
32330;BME280;18807;52.434;13.238;2023-04-29T12:29:53;76151.25;;;-142.05;100.00
32330;BME280;18807;52.434;13.238;2023-04-29T12:37:48;76130.84;;;-142.05;100.00
32330;BME280;18807;52.434;13.238;2023-04-29T12:45:40;76094.13;;;-142.05;100.00
32330;BME280;18807;52.434;13.238;2023-04-29T12:53:15;76059.41;;;-142.05;100.00
32330;BME280;18807;52.434;13.238;2023-04-29T13:00:49;76045.13;;;-142.05;86.52
32330;BME280;18807;52.434;13.238;2023-04-29T13:08:43;76024.72;;;-142.05;84.80
32330;BME280;18807;52.434;13.238;2023-04-29T13:16:17;76000.22;;;-142.05;81.28
32330;BME280;18807;52.434;13.238;2023-04-29T13:23:53;76000.22;;;-142.05;83.59
32330;BME280;18807;52.434;13.238;2023-04-29T13:31:44;76004.31;;;-142.05;79.86
32330;BME280;18807;52.434;13.238;2023-04-29T13:39:21;75985.94;;;-142.05;83.57
32330;BME280;18807;52.434;13.238;2023-04-29T13:47:13;75939.00;;;-142.05;73.67
32330;BME280;18807;52.434;13.238;2023-04-29T13:54:54;75918.59;;;-142.05;67.66
32330;BME280;18807;52.434;13.238;2023-04-29T14:02:49;75922.69;;;-142.05;66.89
32330;BME280;18807;52.434;13.238;2023-04-29T14:10:42;75939.00;;;-142.05;66.24
32330;BME280;18807;52.434;13.238;2023-04-29T14:18:16;75963.50;;;-142.05;66.04
32330;BME280;18807;52.434;13.238;2023-04-29T14:25:51;75957.38;;;-142.05;65.33
32330;BME280;18807;52.434;13.238;2023-04-29T14:33:38;75930.84;;;-142.05;65.69
32330;BME280;18807;52.434;13.238;2023-04-29T14:41:32;75871.66;;;-142.05;61.09
32330;BME280;18807;52.434;13.238;2023-04-29T14:49:19;75861.47;;;-142.05;61.60
32330;BME280;18807;52.434;13.238;2023-04-29T14:57:12;75871.66;;;-142.05;60.67
32330;BME280;18807;52.434;13.238;2023-04-29T15:04:46;75890.03;;;-142.05;60.16
32330;BME280;18807;52.434;13.238;2023-04-29T15:12:22;75904.31;;;-142.05;60.48
32330;BME280;18807;52.434;13.238;2023-04-29T15:20:14;75918.59;;;-142.05;61.13
32330;BME280;18807;52.434;13.238;2023-04-29T15:28:14;75943.09;;;-142.05;61.93
32330;BME280;18807;52.434;13.238;2023-04-29T15:36:07;75947.16;;;-142.05;62.72
32330;BME280;18807;52.434;13.238;2023-04-29T15:44:07;75961.47;;;-142.05;63.37
32330;BME280;18807;52.434;13.238;2023-04-29T15:51:40;75969.63;;;-142.05;64.21
32330;BME280;18807;52.434;13.238;2023-04-29T15:59:16;75988.00;;;-142.05;64.31
32330;BME280;18807;52.434;13.238;2023-04-29T16:06:51;75977.78;;;-142.05;64.43
32330;BME280;18807;52.434;13.238;2023-04-29T16:14:27;75979.81;;;-142.05;65.24
32330;BME280;18807;52.434;13.238;2023-04-29T16:22:01;75973.69;;;-142.05;63.49
32330;BME280;18807;52.434;13.238;2023-04-29T16:29:37;75920.63;;;-142.05;61.76
32330;BME280;18807;52.434;13.238;2023-04-29T16:37:11;75826.75;;;-142.05;53.79
32330;BME280;18807;52.434;13.238;2023-04-29T16:45:04;75804.31;;;-142.05;49.52
32330;BME280;18807;52.434;13.238;2023-04-29T16:52:56;75861.47;;;-142.05;48.52
32330;BME280;18807;52.434;13.238;2023-04-29T17:00:31;75902.28;;;-142.05;48.43
32330;BME280;18807;52.434;13.238;2023-04-29T17:08:06;75906.34;;;-142.05;48.87
32330;BME280;18807;52.434;13.238;2023-04-29T17:15:45;75918.59;;;-142.05;47.35
32330;BME280;18807;52.434;13.238;2023-04-29T17:23:19;75943.09;;;-142.05;47.75
32330;BME280;18807;52.434;13.238;2023-04-29T17:30:55;75955.34;;;-142.05;47.01
32330;BME280;18807;52.434;13.238;2023-04-29T17:38:33;75992.06;;;-142.05;46.86
32330;BME280;18807;52.434;13.238;2023-04-29T17:46:08;76028.81;;;-142.05;47.50
32330;BME280;18807;52.434;13.238;2023-04-29T17:53:42;76057.38;;;-142.05;48.56
32330;BME280;18807;52.434;13.238;2023-04-29T18:01:17;76083.91;;;-142.05;49.01
32330;BME280;18807;52.434;13.238;2023-04-29T18:09:09;76110.44;;;-142.05;48.79
32330;BME280;18807;52.434;13.238;2023-04-29T18:17:02;76139.03;;;-142.05;48.33
32330;BME280;18807;52.434;13.238;2023-04-29T18:24:36;76173.72;;;-142.05;49.61
32330;BME280;18807;52.434;13.238;2023-04-29T18:32:11;76185.97;;;-142.05;50.74
32330;BME280;18807;52.434;13.238;2023-04-29T18:39:45;76210.44;;;-142.05;52.70
32330;BME280;18807;52.434;13.238;2023-04-29T18:47:20;76228.81;;;-142.05;52.86
32330;BME280;18807;52.434;13.238;2023-04-29T18:54:54;76253.31;;;-142.05;54.69
32330;BME280;18807;52.434;13.238;2023-04-29T19:02:47;76275.75;;;-142.05;56.24
32330;BME280;18807;52.434;13.238;2023-04-29T19:10:21;76308.41;;;-142.05;57.29
32330;BME280;18807;52.434;13.238;2023-04-29T19:17:57;76318.63;;;-142.05;58.61
32330;BME280;18807;52.434;13.238;2023-04-29T19:25:31;76341.09;;;-142.05;60.81
32330;BME280;18807;52.434;13.238;2023-04-29T19:33:07;76357.41;;;-142.05;62.35
32330;BME280;18807;52.434;13.238;2023-04-29T19:40:41;76377.81;;;-142.05;63.40
32330;BME280;18807;52.434;13.238;2023-04-29T19:48:21;76396.19;;;-142.05;64.66
32330;BME280;18807;52.434;13.238;2023-04-29T19:55:56;76416.59;;;-142.05;66.09
32330;BME280;18807;52.434;13.238;2023-04-29T20:03:31;76443.13;;;-142.05;67.36
32330;BME280;18807;52.434;13.238;2023-04-29T20:11:07;76469.66;;;-142.05;68.24
32330;BME280;18807;52.434;13.238;2023-04-29T20:18:44;76490.09;;;-142.05;68.97
32330;BME280;18807;52.434;13.238;2023-04-29T20:26:18;76514.56;;;-142.05;69.99
32330;BME280;18807;52.434;13.238;2023-04-29T20:33:54;76535.00;;;-142.05;70.93
32330;BME280;18807;52.434;13.238;2023-04-29T20:41:28;76551.31;;;-142.05;71.90
32330;BME280;18807;52.434;13.238;2023-04-29T20:49:03;76569.69;;;-142.05;73.28
32330;BME280;18807;52.434;13.238;2023-04-29T20:56:37;76590.09;;;-142.05;74.79
32330;BME280;18807;52.434;13.238;2023-04-29T21:04:13;76602.34;;;-142.05;75.69
32330;BME280;18807;52.434;13.238;2023-04-29T21:11:47;76618.69;;;-142.05;76.90
32330;BME280;18807;52.434;13.238;2023-04-29T21:19:22;76635.00;;;-142.05;78.17
32330;BME280;18807;52.434;13.238;2023-04-29T21:26:57;76653.38;;;-142.05;78.14
32330;BME280;18807;52.434;13.238;2023-04-29T21:34:32;76673.78;;;-142.05;77.87
32330;BME280;18807;52.434;13.238;2023-04-29T21:42:07;76694.22;;;-142.05;74.94
32330;BME280;18807;52.434;13.238;2023-04-29T21:49:43;76706.44;;;-142.05;72.99
32330;BME280;18807;52.434;13.238;2023-04-29T21:57:17;76714.63;;;-142.05;69.26
32330;BME280;18807;52.434;13.238;2023-04-29T22:05:05;76722.78;;;-142.05;67.06
32330;BME280;18807;52.434;13.238;2023-04-29T22:12:40;76749.31;;;-142.05;65.37
32330;BME280;18807;52.434;13.238;2023-04-29T22:20:15;76769.72;;;-142.05;65.04
32330;BME280;18807;52.434;13.238;2023-04-29T22:27:49;76792.19;;;-142.05;65.10
32330;BME280;18807;52.434;13.238;2023-04-29T22:35:25;76816.69;;;-142.05;65.01
32330;BME280;18807;52.434;13.238;2023-04-29T22:42:59;76833.00;;;-142.05;64.94
32330;BME280;18807;52.434;13.238;2023-04-29T22:50:35;76859.56;;;-142.05;65.47
32330;BME280;18807;52.434;13.238;2023-04-29T22:58:09;76879.97;;;-142.05;66.32
32330;BME280;18807;52.434;13.238;2023-04-29T23:05:45;76898.34;;;-142.05;66.42
32330;BME280;18807;52.434;13.238;2023-04-29T23:13:19;76914.69;;;-142.05;67.09
32330;BME280;18807;52.434;13.238;2023-04-29T23:20:54;76931.00;;;-142.05;67.36
32330;BME280;18807;52.434;13.238;2023-04-29T23:28:46;76947.34;;;-142.05;67.50
32330;BME280;18807;52.434;13.238;2023-04-29T23:36:22;76953.47;;;-142.05;67.56
32330;BME280;18807;52.434;13.238;2023-04-29T23:43:56;76973.88;;;-142.05;67.96
32330;BME280;18807;52.434;13.238;2023-04-29T23:51:34;76992.25;;;-142.05;68.11
32330;BME280;18807;52.434;13.238;2023-04-29T23:59:08;77008.59;;;-142.05;67.92
